Brooks, Minnesota
Current Conditions -  °F | °C
As of 4:55 PM on Wednesday 22 Oct 2014 (Local Time) from KFSE Reporting Station
Overcast Overcast  
Wind Chill: 59°   Ceiling: 3700
Heat Index: 59°   Visibility: 10mi
Dew Point: 45°   Wind: 14mph
Humidity: 59%   Direction: 170°S
Pressure: 29.86"   Gusts: NA
Location:  47.81°N, 96°W
Report Text: KFSE 222155Z AUTO 17012KT 10SM OVC037 15/07 A2986 RMK AO2
Loading
Personal Weather Stations






























Interactive Weather Map
Tropical Storm Tracking
New forecast layout! Learn more

10-Day Weather Forecast

Advertisements
Track Severe Weather on mobile